createdAt,value
2023-05-19T00:01:33.258Z,98706.59
2023-05-19T00:04:05.571Z,98704.09
2023-05-19T00:06:37.261Z,98700.34
2023-05-19T00:09:10.072Z,98710.84
2023-05-19T00:11:44.396Z,98705.66
2023-05-19T00:14:15.906Z,98701.56
2023-05-19T00:16:47.774Z,98702.50
2023-05-19T00:19:19.090Z,98702.66
2023-05-19T00:21:49.582Z,98705.34
2023-05-19T00:24:20.150Z,98701.16
2023-05-19T00:26:53.378Z,98703.00
2023-05-19T00:29:23.830Z,98698.81
2023-05-19T00:31:54.404Z,98698.25
2023-05-19T00:34:24.948Z,98706.75
2023-05-19T00:36:55.519Z,98697.22
2023-05-19T00:39:26.130Z,98692.03
2023-05-19T00:41:59.239Z,98692.38
2023-05-19T00:44:30.049Z,98699.38
2023-05-19T00:47:01.247Z,98697.13
2023-05-19T00:49:31.865Z,98693.72
2023-05-19T00:52:04.650Z,98687.88
2023-05-19T00:54:36.747Z,98693.44
2023-05-19T00:57:10.020Z,98685.00
2023-05-19T00:59:40.475Z,98693.00
2023-05-19T01:02:11.079Z,98687.16
2023-05-19T01:04:44.035Z,98693.31
2023-05-19T01:07:15.542Z,98690.72
2023-05-19T01:09:46.195Z,98690.81
2023-05-19T01:12:19.461Z,98687.47
2023-05-19T01:14:50.144Z,98686.69
2023-05-19T01:17:29.973Z,98685.78
2023-05-19T01:20:08.397Z,98685.78
2023-05-19T01:23:24.127Z,98683.13
2023-05-19T01:26:40.259Z,98692.88
2023-05-19T01:29:40.585Z,98700.88
2023-05-19T01:32:15.057Z,98705.28
2023-05-19T01:34:47.810Z,98698.41
2023-05-19T01:37:19.463Z,98698.41
2023-05-19T01:39:50.902Z,98693.38
2023-05-19T01:42:22.554Z,98700.69
2023-05-19T01:44:53.778Z,98704.34
2023-05-19T01:47:27.866Z,98695.00
2023-05-19T01:49:58.456Z,98699.47
2023-05-19T01:52:30.350Z,98696.22
2023-05-19T01:55:00.993Z,98703.09
2023-05-19T01:57:43.432Z,98701.38
2023-05-19T02:00:21.967Z,98693.63
2023-05-19T02:03:07.523Z,98701.47
2023-05-19T02:05:51.318Z,98695.47
2023-05-19T02:08:28.740Z,98694.63
2023-05-19T02:11:05.509Z,98696.22
2023-05-19T02:13:42.871Z,98697.22
2023-05-19T02:16:16.743Z,98699.94
2023-05-19T02:18:50.495Z,98701.63
2023-05-19T02:21:20.951Z,98701.63
2023-05-19T02:23:53.466Z,98703.53
2023-05-19T02:26:41.669Z,98705.34
2023-05-19T02:29:12.157Z,98709.75
2023-05-19T02:31:42.651Z,98703.91
2023-05-19T02:34:16.121Z,98698.66
2023-05-19T02:36:54.169Z,98703.00
2023-05-19T02:39:24.736Z,98699.72
2023-05-19T02:41:55.204Z,98702.38
2023-05-19T02:44:27.009Z,98703.28
2023-05-19T02:46:57.538Z,98693.88
2023-05-19T02:49:36.035Z,98699.03
2023-05-19T02:52:07.263Z,98696.59
2023-05-19T02:54:51.975Z,98697.53
2023-05-19T02:57:22.574Z,98687.34
2023-05-19T02:59:52.968Z,98692.50
2023-05-19T03:02:26.398Z,98687.34
2023-05-19T03:05:01.790Z,98689.13
2023-05-19T03:07:34.055Z,98678.81
2023-05-19T03:10:06.807Z,98684.97
2023-05-19T03:12:43.016Z,98675.59
2023-05-19T03:15:16.656Z,98673.94
2023-05-19T03:17:47.427Z,98678.44
2023-05-19T03:20:21.023Z,98684.44
2023-05-19T03:22:51.696Z,98681.06
2023-05-19T03:25:22.844Z,98684.72
2023-05-19T03:27:53.359Z,98683.06
2023-05-19T03:30:23.745Z,98679.72
2023-05-19T03:33:07.735Z,98681.66
2023-05-19T03:35:41.084Z,98679.91
2023-05-19T03:38:12.228Z,98686.13
2023-05-19T03:40:45.260Z,98685.31
2023-05-19T03:43:16.508Z,98683.63
2023-05-19T03:45:58.375Z,98677.91
2023-05-19T03:48:47.549Z,98677.19
2023-05-19T03:51:39.683Z,98684.84
2023-05-19T03:54:22.756Z,98683.41
2023-05-19T03:56:54.809Z,98688.69
2023-05-19T03:59:26.332Z,98693.16
2023-05-19T04:01:58.073Z,98689.81
2023-05-19T04:04:30.831Z,98695.91
2023-05-19T04:07:03.830Z,98693.41
2023-05-19T04:09:35.646Z,98695.97
2023-05-19T04:12:06.171Z,98703.03
2023-05-19T04:14:36.645Z,98695.41
2023-05-19T04:17:07.833Z,98692.09
2023-05-19T04:19:38.300Z,98692.09
2023-05-19T04:22:11.480Z,98699.06
2023-05-19T04:24:41.838Z,98698.13
2023-05-19T04:27:13.945Z,98701.50
2023-05-19T04:29:44.306Z,98698.28
2023-05-19T04:32:18.002Z,98697.53
2023-05-19T04:34:48.834Z,98708.75
2023-05-19T04:37:28.436Z,98693.19
2023-05-19T04:39:59.123Z,98698.50
2023-05-19T04:42:33.131Z,98704.56
2023-05-19T04:45:05.560Z,98711.47
2023-05-19T04:47:38.987Z,98710.66
2023-05-19T04:50:11.558Z,98703.59
2023-05-19T04:52:45.709Z,98708.59
2023-05-19T04:55:17.609Z,98700.19
2023-05-19T04:57:49.371Z,98716.34
2023-05-19T05:00:21.455Z,98715.47
2023-05-19T05:03:08.113Z,98705.13
2023-05-19T05:05:38.759Z,98714.69
2023-05-19T05:08:15.584Z,98713.00
2023-05-19T05:10:46.982Z,98711.25
2023-05-19T05:13:18.197Z,98706.94
2023-05-19T05:15:49.867Z,98708.59
2023-05-19T05:18:21.268Z,98706.72
2023-05-19T05:20:52.765Z,98708.59
2023-05-19T05:23:27.394Z,98709.38
2023-05-19T05:25:58.992Z,98699.06
2023-05-19T05:28:31.237Z,98700.59
2023-05-19T05:31:01.802Z,98696.13
2023-05-19T05:33:33.402Z,98700.31
2023-05-19T05:36:04.750Z,98700.16
2023-05-19T05:38:38.045Z,98701.84
2023-05-19T05:41:08.986Z,98707.88
2023-05-19T05:43:41.105Z,98702.72
2023-05-19T05:46:12.024Z,98709.63
2023-05-19T05:48:44.449Z,98708.66
2023-05-19T05:51:16.268Z,98707.69
2023-05-19T05:53:55.848Z,98711.88
2023-05-19T05:56:37.215Z,98707.47
2023-05-19T05:59:09.620Z,98711.72
2023-05-19T06:01:41.767Z,98707.25
2023-05-19T06:04:13.307Z,98713.03
2023-05-19T06:06:43.749Z,98708.66
2023-05-19T06:09:19.395Z,98712.81
2023-05-19T06:11:50.011Z,98714.06
2023-05-19T06:14:20.592Z,98705.78
2023-05-19T06:17:11.414Z,98712.19
2023-05-19T06:19:41.928Z,98713.41
2023-05-19T06:22:12.767Z,98711.38
2023-05-19T06:24:45.799Z,98704.34
2023-05-19T06:27:17.639Z,98703.66
2023-05-19T06:29:49.585Z,98701.63
2023-05-19T06:32:20.282Z,98706.50
2023-05-19T06:34:54.376Z,98703.91
2023-05-19T06:37:25.845Z,98700.16
2023-05-19T06:39:59.028Z,98696.66
2023-05-19T06:42:30.328Z,98695.69
2023-05-19T06:45:11.819Z,98692.16
2023-05-19T06:47:44.698Z,98699.63
2023-05-19T06:50:15.411Z,98702.75
2023-05-19T06:52:47.232Z,98690.28
2023-05-19T06:55:20.558Z,98693.31
2023-05-19T06:57:53.434Z,98694.66
2023-05-19T07:00:24.391Z,98699.69
2023-05-19T07:02:56.754Z,98701.03
2023-05-19T07:05:27.971Z,98693.03
2023-05-19T07:08:01.868Z,98695.38
2023-05-19T07:10:35.795Z,98694.03
2023-05-19T07:13:10.693Z,98693.63
2023-05-19T07:15:41.106Z,98686.38
2023-05-19T07:18:11.770Z,98692.16
2023-05-19T07:20:42.291Z,98699.81
2023-05-19T07:23:13.140Z,98700.50
2023-05-19T07:25:46.257Z,98690.13
2023-05-19T07:28:16.760Z,98688.22
2023-05-19T07:30:47.496Z,98688.88
2023-05-19T07:33:20.340Z,98692.25
2023-05-19T07:35:51.801Z,98688.41
2023-05-19T07:38:22.452Z,98684.03
2023-05-19T07:40:55.594Z,98688.03
2023-05-19T07:43:26.546Z,98687.88
2023-05-19T07:45:57.589Z,98686.03
2023-05-19T07:48:30.020Z,98682.09
2023-05-19T07:51:00.901Z,98686.88
2023-05-19T07:53:32.975Z,98684.16
2023-05-19T07:56:06.748Z,98675.22
2023-05-19T07:58:39.264Z,98677.28
2023-05-19T08:01:09.859Z,98670.09
2023-05-19T08:03:40.367Z,98669.16
2023-05-19T08:06:10.963Z,98674.34
2023-05-19T08:08:42.342Z,98667.44
2023-05-19T08:11:15.523Z,98668.28
2023-05-19T08:13:47.767Z,98663.91
2023-05-19T08:16:18.361Z,98666.41
2023-05-19T08:18:48.990Z,98663.91
2023-05-19T08:21:19.499Z,98658.34
2023-05-19T08:23:50.065Z,98657.81
2023-05-19T08:26:23.080Z,98662.72
2023-05-19T08:28:53.655Z,98662.38
2023-05-19T08:31:25.210Z,98659.78
2023-05-19T08:33:58.486Z,98654.88
2023-05-19T08:36:31.709Z,98655.25
2023-05-19T08:39:02.158Z,98648.56
2023-05-19T08:41:35.724Z,98653.97
2023-05-19T08:44:06.622Z,98657.41
2023-05-19T08:46:37.445Z,98650.56
2023-05-19T08:49:15.901Z,98651.28
2023-05-19T08:51:57.292Z,98655.28
2023-05-19T08:54:35.395Z,98653.41
2023-05-19T08:57:10.183Z,98655.66
2023-05-19T08:59:42.456Z,98655.28
2023-05-19T09:02:16.019Z,98654.47
2023-05-19T09:04:48.209Z,98652.78
2023-05-19T09:07:19.076Z,98654.19
2023-05-19T09:09:49.529Z,98652.50
2023-05-19T09:12:22.570Z,98644.16
2023-05-19T09:14:53.099Z,98647.63
2023-05-19T09:17:23.593Z,98647.63
2023-05-19T09:19:54.743Z,98649.00
2023-05-19T09:22:25.640Z,98645.13
2023-05-19T09:24:56.878Z,98641.47
2023-05-19T09:27:29.870Z,98651.84
2023-05-19T09:30:11.054Z,98653.38
2023-05-19T09:32:41.842Z,98656.03
2023-05-19T09:35:14.412Z,98648.06
2023-05-19T09:37:45.235Z,98645.38
2023-05-19T09:40:18.831Z,98645.94
2023-05-19T09:42:51.882Z,98642.69
2023-05-19T09:45:23.686Z,98640.00
2023-05-19T09:47:54.142Z,98639.06
2023-05-19T09:50:30.325Z,98644.72
2023-05-19T09:53:01.409Z,98634.03
2023-05-19T09:55:33.521Z,98635.44
2023-05-19T09:58:07.616Z,98632.38
2023-05-19T10:00:38.330Z,98632.16
2023-05-19T10:03:09.299Z,98632.31
2023-05-19T10:05:41.711Z,98630.59
2023-05-19T10:08:14.923Z,98631.03
2023-05-19T10:10:45.843Z,98636.06
2023-05-19T10:13:19.774Z,98629.00
2023-05-19T10:15:59.017Z,98629.19
2023-05-19T10:18:31.581Z,98631.03
2023-05-19T10:21:03.646Z,98622.31
2023-05-19T10:23:34.081Z,98627.00
2023-05-19T10:26:06.867Z,98626.94
2023-05-19T10:28:44.171Z,98626.94
2023-05-19T10:31:22.360Z,98629.88
2023-05-19T10:34:26.769Z,98624.22
2023-05-19T10:37:09.498Z,98630.47
2023-05-19T10:39:40.424Z,98632.13
2023-05-19T10:42:20.210Z,98630.38
2023-05-19T10:45:04.419Z,98627.16
2023-05-19T10:47:35.424Z,98612.50
2023-05-19T10:50:08.042Z,98615.94
2023-05-19T10:52:41.405Z,98617.22
2023-05-19T10:55:15.770Z,98612.13
2023-05-19T10:57:57.193Z,98615.38
2023-05-19T11:00:35.819Z,98613.69
2023-05-19T11:05:54.732Z,98605.16
2023-05-19T11:08:36.588Z,98607.75
2023-05-19T11:11:17.652Z,98616.19
2023-05-19T11:13:51.850Z,98615.13
2023-05-19T11:16:31.101Z,98620.34
2023-05-19T11:19:03.176Z,98616.00
2023-05-19T11:21:47.029Z,98608.72
2023-05-19T11:24:37.687Z,98612.34
2023-05-19T11:27:27.989Z,98612.25
2023-05-19T11:30:00.292Z,98616.97
2023-05-19T11:32:39.335Z,98623.91
2023-05-19T11:35:11.446Z,98621.22
2023-05-19T11:37:42.878Z,98620.41
2023-05-19T11:40:14.205Z,98618.94
2023-05-19T11:42:45.497Z,98607.69
2023-05-19T11:45:16.403Z,98611.22
2023-05-19T11:48:01.382Z,98613.50
2023-05-19T11:50:36.990Z,98612.91
2023-05-19T11:53:07.731Z,98613.13
2023-05-19T11:55:38.281Z,98600.75
2023-05-19T11:58:08.726Z,98606.66
2023-05-19T12:00:41.375Z,98603.34
2023-05-19T12:03:15.076Z,98599.81
2023-05-19T12:05:48.694Z,98598.88
2023-05-19T12:08:21.786Z,98609.25
2023-05-19T12:10:53.046Z,98602.53
2023-05-19T12:13:25.159Z,98602.00
2023-05-19T12:15:56.207Z,98594.41
2023-05-19T12:18:33.639Z,98597.44
2023-05-19T12:21:04.204Z,98605.34
2023-05-19T12:23:35.481Z,98595.66
2023-05-19T12:26:06.377Z,98599.94
2023-05-19T12:28:37.522Z,98599.00
2023-05-19T12:31:09.146Z,98600.88
2023-05-19T12:33:42.498Z,98598.28
2023-05-19T12:36:14.162Z,98600.13
2023-05-19T12:38:44.795Z,98613.75
2023-05-19T12:41:15.406Z,98605.88
2023-05-19T12:43:45.976Z,98607.53
2023-05-19T12:46:17.281Z,98606.72
2023-05-19T12:48:52.080Z,98601.69
2023-05-19T12:51:22.795Z,98609.81
2023-05-19T12:53:53.762Z,98609.19
2023-05-19T12:56:24.623Z,98602.09
2023-05-19T12:58:57.937Z,98600.34
2023-05-19T13:01:29.040Z,98601.19
2023-05-19T13:04:04.643Z,98600.34
2023-05-19T13:06:36.542Z,98602.31
2023-05-19T13:09:07.512Z,98599.63
2023-05-19T13:11:37.983Z,98596.25
2023-05-19T13:14:08.548Z,98594.59
2023-05-19T13:16:39.216Z,98598.53
2023-05-19T13:19:24.289Z,98591.69
2023-05-19T13:21:56.230Z,98588.13
2023-05-19T13:24:26.771Z,98587.22
2023-05-19T13:26:57.354Z,98585.16
2023-05-19T13:29:28.425Z,98579.00
2023-05-19T13:32:01.188Z,98582.34
2023-05-19T13:34:34.589Z,98577.16
2023-05-19T13:37:05.830Z,98577.16
2023-05-19T13:39:37.164Z,98573.50
2023-05-19T13:42:08.428Z,98573.59
2023-05-19T13:44:39.012Z,98568.41
2023-05-19T13:47:09.500Z,98576.19
2023-05-19T13:49:43.081Z,98571.75
2023-05-19T13:52:16.428Z,98570.88
2023-05-19T13:54:46.931Z,98570.06
2023-05-19T13:57:20.279Z,98570.06
2023-05-19T14:00:01.947Z,98566.53
2023-05-19T14:02:42.698Z,98565.50
2023-05-19T14:05:15.929Z,98571.75
2023-05-19T14:07:46.943Z,98566.31
2023-05-19T14:10:17.818Z,98561.03
2023-05-19T14:13:14.038Z,98559.69
2023-05-19T14:15:41.595Z,98553.53
2023-05-19T14:18:12.229Z,98560.28
2023-05-19T14:20:45.406Z,98548.44
2023-05-19T14:23:17.135Z,98552.81
2023-05-19T14:25:47.653Z,98554.28
2023-05-19T14:28:18.000Z,98545.94
2023-05-19T14:30:48.854Z,98543.13
2023-05-19T14:33:19.563Z,98545.31
2023-05-19T14:35:52.795Z,98538.44
2023-05-19T14:38:23.336Z,98543.63
2023-05-19T14:40:54.243Z,98546.97
2023-05-19T14:43:24.624Z,98543.63
2023-05-19T14:45:55.098Z,98547.38
2023-05-19T14:48:25.774Z,98549.06
2023-05-19T14:50:59.005Z,98550.72
2023-05-19T14:53:29.489Z,98554.03
2023-05-19T14:55:59.902Z,98554.91
2023-05-19T14:58:30.888Z,98559.25
2023-05-19T15:01:01.930Z,98552.19
2023-05-19T15:03:32.576Z,98551.25
2023-05-19T15:06:05.711Z,98551.44
2023-05-19T15:08:37.903Z,98547.47
2023-05-19T15:11:08.486Z,98545.09
2023-05-19T15:13:39.029Z,98546.03
2023-05-19T15:18:44.839Z,98540.00
2023-05-19T15:21:17.864Z,98546.34
2023-05-19T15:23:48.351Z,98535.63
2023-05-19T15:26:18.869Z,98538.03
2023-05-19T15:28:49.435Z,98532.81
2023-05-19T15:31:19.878Z,98534.47
2023-05-19T15:33:50.461Z,98527.59
2023-05-19T15:36:24.191Z,98525.75
2023-05-19T15:38:54.558Z,98523.16
2023-05-19T15:41:24.916Z,98517.00
2023-05-19T15:43:56.025Z,98516.56
2023-05-19T15:46:26.610Z,98520.84
2023-05-19T15:48:57.172Z,98516.34
2023-05-19T15:51:30.306Z,98510.19
2023-05-19T15:54:00.846Z,98511.97
2023-05-19T15:56:31.313Z,98505.94
2023-05-19T15:59:01.758Z,98505.56
2023-05-19T16:01:32.555Z,98514.69
2023-05-19T16:04:04.100Z,98508.84
2023-05-19T16:06:37.207Z,98503.78
2023-05-19T16:09:07.686Z,98506.50
2023-05-19T16:11:38.143Z,98494.19
2023-05-19T16:14:08.707Z,98490.88
2023-05-19T16:16:39.251Z,98487.13
2023-05-19T16:19:10.502Z,98478.84
2023-05-19T16:21:43.635Z,98472.94
2023-05-19T16:24:14.200Z,98470.09
2023-05-19T16:26:44.726Z,98470.97
2023-05-19T16:29:15.202Z,98473.00
2023-05-19T16:31:45.653Z,98471.25
2023-05-19T16:34:16.315Z,98466.13
2023-05-19T16:36:49.295Z,98467.56
2023-05-19T16:39:19.690Z,98465.09
2023-05-19T16:41:50.168Z,98468.31
2023-05-19T16:44:20.601Z,98463.72
2023-05-19T16:46:50.968Z,98468.69
2023-05-19T16:49:21.472Z,98455.69
2023-05-19T16:51:55.933Z,98457.94
2023-05-19T16:54:26.392Z,98457.28
2023-05-19T16:56:56.786Z,98457.66
2023-05-19T16:59:27.323Z,98452.16
2023-05-19T17:01:57.821Z,98449.03
2023-05-19T17:04:30.675Z,98451.53
2023-05-19T17:07:03.965Z,98452.56
2023-05-19T17:09:34.580Z,98455.19
2023-05-19T17:12:05.027Z,98463.72
2023-05-19T17:14:35.718Z,98459.81
2023-05-19T17:17:06.787Z,98452.84
2023-05-19T17:19:37.516Z,98444.06
2023-05-19T17:22:10.660Z,98450.22
2023-05-19T17:24:41.394Z,98448.53
2023-05-19T17:27:11.853Z,98444.50
2023-05-19T17:29:42.477Z,98452.56
2023-05-19T17:32:13.001Z,98444.50
2023-05-19T17:34:43.542Z,98447.94
2023-05-19T17:37:19.284Z,98444.28
2023-05-19T17:39:49.709Z,98439.31
2023-05-19T17:42:20.272Z,98432.44
2023-05-19T17:44:50.733Z,98434.53
2023-05-19T17:47:21.231Z,98441.53
2023-05-19T17:49:53.130Z,98444.75
2023-05-19T17:52:27.260Z,98443.91
2023-05-19T17:54:58.870Z,98437.63
2023-05-19T17:57:34.188Z,98444.28
2023-05-19T18:00:05.902Z,98441.16
2023-05-19T18:02:37.587Z,98441.16
2023-05-19T18:05:10.099Z,98440.25
2023-05-19T18:07:46.303Z,98437.13
2023-05-19T18:10:19.404Z,98437.63
2023-05-19T18:12:49.942Z,98433.72
2023-05-19T18:15:21.218Z,98436.69
2023-05-19T18:17:51.812Z,98436.91
2023-05-19T18:20:22.567Z,98434.91
2023-05-19T18:22:55.867Z,98432.78
2023-05-19T18:25:26.375Z,98432.19
2023-05-19T18:27:57.385Z,98429.94
2023-05-19T18:30:27.782Z,98418.91
2023-05-19T18:33:02.206Z,98423.63
2023-05-19T18:35:32.809Z,98420.56
2023-05-19T18:38:05.914Z,98425.31
2023-05-19T18:40:36.568Z,98422.31
2023-05-19T18:43:07.370Z,98422.69
2023-05-19T18:45:38.582Z,98423.13
2023-05-19T18:48:10.181Z,98419.06
2023-05-19T18:50:41.195Z,98415.25
2023-05-19T18:53:14.412Z,98408.63
2023-05-19T18:55:45.023Z,98417.84
2023-05-19T18:58:15.626Z,98424.97
2023-05-19T19:00:46.171Z,98425.41
2023-05-19T19:03:16.654Z,98425.88
2023-05-19T19:05:48.153Z,98426.53
2023-05-19T19:08:21.189Z,98418.47
2023-05-19T19:10:52.236Z,98425.56
2023-05-19T19:13:22.803Z,98420.78
2023-05-19T19:15:53.339Z,98428.75
2023-05-19T19:18:24.060Z,98429.78
2023-05-19T19:20:55.039Z,98425.75
2023-05-19T19:23:28.115Z,98433.44
2023-05-19T19:25:58.859Z,98432.13
2023-05-19T19:28:29.462Z,98433.97
2023-05-19T19:30:59.980Z,98435.16
2023-05-19T19:33:30.663Z,98438.00
2023-05-19T19:36:01.528Z,98440.00
2023-05-19T19:38:34.656Z,98437.00
2023-05-19T19:41:05.284Z,98438.84
2023-05-19T19:43:35.844Z,98440.00
2023-05-19T19:46:09.321Z,98437.41
2023-05-19T19:48:39.805Z,98440.47
2023-05-19T19:51:10.233Z,98430.28
2023-05-19T19:53:43.363Z,98428.69
2023-05-19T19:56:13.828Z,98425.44
2023-05-19T19:58:44.318Z,98422.25
2023-05-19T20:01:16.172Z,98431.94
2023-05-19T20:03:46.699Z,98429.66
2023-05-19T20:06:17.229Z,98434.13
2023-05-19T20:08:50.366Z,98430.09
2023-05-19T20:11:23.123Z,98435.50
2023-05-19T20:13:53.673Z,98429.59
2023-05-19T20:16:24.339Z,98434.16
2023-05-19T20:18:54.880Z,98422.94
2023-05-19T20:21:25.461Z,98427.53
2023-05-19T20:23:58.722Z,98436.34
2023-05-19T20:26:29.445Z,98437.31
2023-05-19T20:29:00.437Z,98435.84
2023-05-19T20:31:30.837Z,98435.22
2023-05-19T20:34:01.902Z,98428.25
2023-05-19T20:36:32.576Z,98424.00
2023-05-19T20:39:07.292Z,98419.22
2023-05-19T20:41:37.478Z,98426.31
2023-05-19T20:44:10.435Z,98422.97
2023-05-19T20:46:40.903Z,98430.75
2023-05-19T20:49:11.237Z,98430.06
2023-05-19T20:51:41.732Z,98432.13
2023-05-19T20:54:14.738Z,98422.97
2023-05-19T20:56:45.261Z,98426.63
2023-05-19T20:59:15.928Z,98431.31
2023-05-19T21:01:48.399Z,98426.94
2023-05-19T21:04:19.091Z,98428.81
2023-05-19T21:06:49.619Z,98429.09
2023-05-19T21:09:22.858Z,98422.25
2023-05-19T21:11:53.818Z,98426.50
2023-05-19T21:14:25.518Z,98417.06
2023-05-19T21:16:56.802Z,98421.53
2023-05-19T21:19:27.589Z,98421.31
2023-05-19T21:21:58.182Z,98417.13
2023-05-19T21:24:31.358Z,98410.09
2023-05-19T21:27:01.796Z,98413.00
2023-05-19T21:29:32.164Z,98406.13
2023-05-19T21:32:02.648Z,98407.19
2023-05-19T21:34:33.043Z,98403.84
2023-05-19T21:37:03.610Z,98411.63
2023-05-19T21:39:36.704Z,98409.22
2023-05-19T21:42:08.223Z,98405.09
2023-05-19T21:44:39.039Z,98405.91
2023-05-19T21:47:09.653Z,98406.13
2023-05-19T21:49:41.050Z,98402.97
2023-05-19T21:52:11.484Z,98401.50
2023-05-19T21:54:44.554Z,98390.19
2023-05-19T21:57:15.097Z,98396.50
2023-05-19T21:59:45.672Z,98395.69
2023-05-19T22:02:16.193Z,98388.22
2023-05-19T22:04:46.713Z,98391.13
2023-05-19T22:07:17.091Z,98382.69
2023-05-19T22:09:50.185Z,98391.50
2023-05-19T22:12:20.590Z,98386.50
2023-05-19T22:14:50.977Z,98386.81
2023-05-19T22:17:21.804Z,98374.97
2023-05-19T22:19:52.288Z,98385.66
2023-05-19T22:22:22.722Z,98384.09
2023-05-19T22:24:55.751Z,98380.78
2023-05-19T22:27:26.279Z,98381.78
2023-05-19T22:29:56.700Z,98378.03
2023-05-19T22:32:27.108Z,98384.25
2023-05-19T22:34:57.645Z,98377.69
2023-05-19T22:37:29.119Z,98385.03
2023-05-19T22:40:02.768Z,98381.63
2023-05-19T22:42:33.117Z,98383.88
2023-05-19T22:45:03.575Z,98379.88
2023-05-19T22:47:34.066Z,98381.19
2023-05-19T22:50:04.469Z,98375.94
2023-05-19T22:52:35.017Z,98371.13
2023-05-19T22:55:09.296Z,98370.28
2023-05-19T22:57:39.824Z,98373.00
2023-05-19T23:00:14.236Z,98370.59
2023-05-19T23:02:45.151Z,98373.38
2023-05-19T23:05:15.548Z,98372.53
2023-05-19T23:07:46.158Z,98361.53
2023-05-19T23:10:19.617Z,98364.31
2023-05-19T23:12:50.394Z,98367.91
2023-05-19T23:15:21.125Z,98364.78
2023-05-19T23:17:51.739Z,98361.63
2023-05-19T23:20:22.209Z,98361.81
2023-05-19T23:22:52.666Z,98362.09
2023-05-19T23:25:25.666Z,98370.25
2023-05-19T23:27:56.180Z,98361.81
2023-05-19T23:30:26.631Z,98359.22
2023-05-19T23:32:57.055Z,98361.28
2023-05-19T23:35:27.630Z,98350.44
2023-05-19T23:37:58.108Z,98348.78
2023-05-19T23:40:31.775Z,98349.72
2023-05-19T23:43:02.214Z,98352.31
2023-05-19T23:45:32.825Z,98350.66
2023-05-19T23:48:03.573Z,98350.72
2023-05-19T23:50:34.131Z,98346.56
2023-05-19T23:53:04.631Z,98338.34
2023-05-19T23:55:37.615Z,98340.00
2023-05-19T23:58:08.177Z,98341.00
